Carmel Valley Village, CA

6:09 PM PDT on September 25, 2016 (GMT -0700)
MesoWest | | Change Station
Active Advisory: Heat Advisory Active Notice: Record Report

Elev 1791 ft 36.39 °N, 121.55 °W | Updated 1 hour ago

Clear
Clear
88 °F
Feels Like 84 °F
N
3
Wind Variable Wind from WSW
Gusts 6.0 mph

Today
High -- | Low -- °F
--% Chance of Precip.
Yesterday
High -- | Low -- °F
Precip. -- in
Pressure 30.01 in
Visibility 10.0 miles
Clouds Clear
Heat Index 84 °F
Dew Point 39 °F
Humidity 18%
Rainfall in
Snow Depth Not available.
6:57 AM 6:57 PM
Waning Crescent, 23% visible
METAR KMRY 260054Z 35005KT 10SM CLR 27/10 A2998 RMK AO2 SLP162 T02670100
Pressure 30.01 in
Visibility 10.0 miles
Clouds Clear
Heat Index 84 °F
Dew Point 39 °F
Humidity 18%
Rainfall in
Snow Depth Not available.
6:57 AM 6:57 PM
Waning Crescent, 23% visible
METAR KMRY 260054Z 35005KT 10SM CLR 27/10 A2998 RMK AO2 SLP162 T02670100

10-Day Weather Forecast

Almanac

Astronomy

Sep. 25, 2016 Rise Set
Actual Time
Civil Twilight
Nautical Twilight
Astronomical Twilight
Moon
Length of Visible Light
Length of Day
Tomorrow will be .
, % of the Moon is Illuminated

Today's Extremes

State Highs State Lows

Community

WunderPhotos

Upload Photos

1,941,797 photos uploaded!

WunderBlog® & News

Nearby

Air Quality

  Air Quality AQ Index Pollutant
Not available.

Snow Depth

Station Depth Elevation

Earthquake Activity

City Distance Mag. Time & Date
Minimum magnitude displayed is 2.5.

Coastal Water Temperatures

Place Temperature

Stations

Nearby Weather Stations

Station Location Temp. Windchill Dew Point Humidity Wind Precip. Elev Updated Type
                   

Watches & Warnings

Heat Advisory
Issued: 3:45 AM PDT Sep. 25, 2016 – National Weather Service

... Heat advisory remains in effect from 11 am this morning to
8 PM PDT this evening...
... Heat advisory remains in effect from 11 am to 8 PM PDT
Monday...

* temperature... highs will mostly be in the mid 80s to mid 90s
near the coast with mid 90s to 105 for inland areas.

* Location... the entire San Francisco Bay area and entire
Monterey Bay area.

* Timing... hottest days are expected to be Sunday and Monday.
Modest cooling will occur on Tuesday... mainly near the coast.
Much more significant and widespread cooling is forecast to
occur by Wednesday.

* Impacts... the heat will result in elevated health risks for
those who are sensitive to heat.

Precautionary/preparedness actions...

A heat advisory means that a period of hot temperatures is
expected. Hot temperatures will create a situation in which heat
illnesses are possible. Drink plenty of fluids... stay in an air-
conditioned room... stay out of the sun... and check up on relatives
and neighbors. Never leave kids or pets in vehicles as
temperatures can quickly reach very dangerous levels.